Time;durP1;ratioP1;P1;durP2;ratioP2;P2;SDS_P1;SDS_P2;PMS_P1;PMS_P2;Temp;Humidity;BMP_temperature;BMP_pressure;BME280_temperature;BME280_humidity;BME280_pressure;Samples;Min_cycle;Max_cycle;Signal;HPM_P1;HPM_P2
2022/04/08 00:02:18;;;;;;;;;;;;;;;-144.19;100.00;75612.84;5049756;28;19950;-85
2022/04/08 00:04:45;;;;;;;;;;;;;;;-144.19;100.00;75610.88;5051034;28;19925;-87
2022/04/08 00:07:11;;;;;;;;;;;;;;;-144.19;100.00;75622.69;5051938;28;20012;-86
2022/04/08 00:09:37;;;;;;;;;;;;;;;-144.19;100.00;75604.97;5034532;28;19931;-86
2022/04/08 00:12:04;;;;;;;;;;;;;;;-144.19;100.00;75626.63;5033267;28;19932;-88
2022/04/08 00:14:32;;;;;;;;;;;;;;;-144.19;100.00;75630.56;5035020;28;19924;-88
2022/04/08 00:16:58;;;;;;;;;;;;;;;-144.19;100.00;75622.69;5034984;28;20035;-86
2022/04/08 00:19:27;;;;;;;;;;;;;;;-144.19;100.00;75634.50;5034459;28;20395;-86
2022/04/08 00:21:54;;;;;;;;;;;;;;;-144.19;100.00;75650.22;5051774;28;19999;-85
2022/04/08 00:24:20;;;;;;;;;;;;;;;-144.19;100.00;75665.97;5034438;28;20020;-87
2022/04/08 00:26:46;;;;;;;;;;;;;;;-144.19;100.00;75677.78;5052154;28;19925;-87
2022/04/08 00:29:13;;;;;;;;;;;;;;;-144.19;100.00;75705.34;5056507;23;19935;-90
2022/04/08 00:31:40;;;;;;;;;;;;;;;-144.19;100.00;75711.25;5034715;28;19925;-89
2022/04/08 00:34:06;;;;;;;;;;;;;;;-144.19;100.00;75709.28;5034770;28;20015;-90
2022/04/08 00:36:32;;;;;;;;;;;;;;;-144.19;100.00;75717.16;5035580;28;19929;-89
2022/04/08 00:38:59;;;;;;;;;;;;;;;-144.19;100.00;75725.03;5051284;28;19929;-88
2022/04/08 00:41:25;;;;;;;;;;;;;;;-144.19;100.00;75732.88;5036078;28;19935;-90
2022/04/08 00:43:51;;;;;;;;;;;;;;;-144.19;100.00;75728.94;5034296;28;19924;-90
2022/04/08 00:46:17;;;;;;;;;;;;;;;-144.19;100.00;75734.84;5034875;28;19943;-90
2022/04/08 00:48:44;;;;;;;;;;;;;;;-144.19;100.00;75756.50;5034747;28;19925;-88
2022/04/08 00:51:11;;;;;;;;;;;;;;;-144.19;100.00;75756.50;5035029;28;19924;-86
2022/04/08 00:53:38;;;;;;;;;;;;;;;-144.19;100.00;75760.44;5034770;28;19939;-88
2022/04/08 00:56:05;;;;;;;;;;;;;;;-144.19;100.00;75760.44;5034109;28;19925;-88
2022/04/08 00:58:31;;;;;;;;;;;;;;;-144.19;100.00;75772.25;5033204;28;19931;-88
2022/04/08 01:00:58;;;;;;;;;;;;;;;-144.19;100.00;75748.63;5033188;28;20306;-88
2022/04/08 01:03:24;;;;;;;;;;;;;;;-144.19;100.00;75754.53;5032672;28;19932;-89
2022/04/08 01:05:50;;;;;;;;;;;;;;;-144.19;100.00;75776.19;5051496;28;20386;-91
2022/04/08 01:08:17;;;;;;;;;;;;;;;-144.19;100.00;75776.19;5051540;28;19936;-88
2022/04/08 01:10:44;;;;;;;;;;;;;;;-144.19;100.00;75784.06;5033452;28;19925;-86
2022/04/08 01:13:10;;;;;;;;;;;;;;;-144.19;100.00;75793.91;5036354;28;19932;-89
2022/04/08 01:15:37;;;;;;;;;;;;;;;-144.19;100.00;75813.59;5039048;28;20736;-90
2022/04/08 01:18:05;;;;;;;;;;;;;;;-144.19;100.00;75833.25;5055815;28;19940;-88
2022/04/08 01:20:32;;;;;;;;;;;;;;;-144.19;100.00;75827.34;5038723;28;19924;-87
2022/04/08 01:22:59;;;;;;;;;;;;;;;-144.19;100.00;75850.97;5038702;28;20383;-91
2022/04/08 01:25:25;;;;;;;;;;;;;;;-144.19;100.00;75843.09;5056583;28;19931;-89
2022/04/08 01:27:51;;;;;;;;;;;;;;;-144.19;100.00;75843.09;5037385;28;20291;-89
2022/04/08 01:30:18;;;;;;;;;;;;;;;-144.19;100.00;75839.16;5037351;28;19925;-89
2022/04/08 01:32:45;;;;;;;;;;;;;;;-144.19;100.00;75858.84;5037595;28;20347;-89
2022/04/08 01:35:13;;;;;;;;;;;;;;;-144.19;100.00;75854.91;5024812;28;19925;-86
2022/04/08 01:37:39;;;;;;;;;;;;;;;-144.19;100.00;75866.72;5017198;28;20003;-91
2022/04/08 01:40:06;;;;;;;;;;;;;;;-144.19;100.00;75854.91;5017479;28;19960;-91
2022/04/08 01:42:32;;;;;;;;;;;;;;;-144.19;100.00;75866.72;5017758;28;19929;-90
2022/04/08 01:44:59;;;;;;;;;;;;;;;-144.19;100.00;75874.59;5018612;28;19971;-89
2022/04/08 01:47:25;;;;;;;;;;;;;;;-144.19;100.00;75850.97;5017811;28;20020;-90
2022/04/08 01:49:51;;;;;;;;;;;;;;;-144.19;100.00;75886.41;5017445;28;20373;-89
2022/04/08 01:52:18;;;;;;;;;;;;;;;-144.19;100.00;75894.28;5015985;28;19925;-90
2022/04/08 01:54:44;;;;;;;;;;;;;;;-144.19;100.00;75906.06;5017313;28;19925;-89
2022/04/08 01:57:10;;;;;;;;;;;;;;;-144.19;100.00;75908.03;5019417;28;20317;-88
2022/04/08 01:59:36;;;;;;;;;;;;;;;-144.19;100.00;75913.94;5017253;28;20288;-90
2022/04/08 02:02:03;;;;;;;;;;;;;;;-144.19;100.00;75973.00;5035285;28;19935;-88
2022/04/08 02:04:29;;;;;;;;;;;;;;;-144.19;100.00;75955.28;5020155;28;20387;-87
2022/04/08 02:06:56;;;;;;;;;;;;;;;-144.19;100.00;75996.63;5035861;28;20338;-89
2022/04/08 02:09:22;;;;;;;;;;;;;;;-144.19;100.00;75980.88;5017821;28;19926;-90
2022/04/08 02:11:48;;;;;;;;;;;;;;;-144.19;100.00;75988.75;5015718;28;20387;-91
2022/04/08 02:14:15;;;;;;;;;;;;;;;-144.19;100.00;75984.81;5016311;28;19925;-90
2022/04/08 02:16:41;;;;;;;;;;;;;;;-144.19;100.00;76024.16;5017330;28;19925;-88
2022/04/08 02:19:08;;;;;;;;;;;;;;;-144.19;100.00;76039.91;5017139;28;20343;-87
2022/04/08 02:21:34;;;;;;;;;;;;;;;-144.19;100.00;76063.53;5016213;28;19931;-89
2022/04/08 02:24:03;;;;;;;;;;;;;;;-144.19;100.00;76051.72;5033544;28;20268;-90
2022/04/08 02:26:29;;;;;;;;;;;;;;;-144.19;100.00;76055.66;5016944;28;19925;-87
2022/04/08 02:28:55;;;;;;;;;;;;;;;-144.19;100.00;76057.63;5033371;28;19925;-89
2022/04/08 02:31:22;;;;;;;;;;;;;;;-144.19;100.00;76083.22;5016033;28;19933;-89
2022/04/08 02:33:48;;;;;;;;;;;;;;;-144.19;100.00;76102.91;5017694;28;19960;-87
2022/04/08 02:36:14;;;;;;;;;;;;;;;-144.19;100.00;76118.63;5054176;28;19928;-90
2022/04/08 02:38:41;;;;;;;;;;;;;;;-144.19;100.00;76124.53;5055816;28;19925;-88
2022/04/08 02:41:07;;;;;;;;;;;;;;;-144.19;100.00;76142.25;5056137;28;19925;-89
2022/04/08 02:43:33;;;;;;;;;;;;;;;-144.19;100.00;76152.09;5036406;28;19935;-92
2022/04/08 02:46:00;;;;;;;;;;;;;;;-144.19;100.00;76152.09;5054460;28;19925;-89
2022/04/08 02:48:27;;;;;;;;;;;;;;;-144.19;100.00;76173.75;5036956;28;20019;-89
2022/04/08 02:50:53;;;;;;;;;;;;;;;-144.19;100.00;76169.81;5036220;28;19986;-90
2022/04/08 02:53:19;;;;;;;;;;;;;;;-144.19;100.00;76169.81;5035846;28;19924;-88
2022/04/08 02:55:46;;;;;;;;;;;;;;;-144.19;100.00;76169.81;5036303;28;19925;-86
2022/04/08 02:58:12;;;;;;;;;;;;;;;-144.19;100.00;76169.81;5036305;28;19924;-90
2022/04/08 03:00:40;;;;;;;;;;;;;;;-144.19;100.00;76185.56;5036068;28;19925;-87
2022/04/08 03:03:06;;;;;;;;;;;;;;;-144.19;100.00;76197.38;5052618;28;20014;-92
2022/04/08 03:05:33;;;;;;;;;;;;;;;-144.19;100.00;76181.63;5036458;28;20405;-87
2022/04/08 03:07:59;;;;;;;;;;;;;;;-144.19;100.00;76209.19;5052524;28;19929;-92
2022/04/08 03:10:25;;;;;;;;;;;;;;;-144.19;100.00;76201.31;5035191;28;19931;-92
2022/04/08 03:12:52;;;;;;;;;;;;;;;-144.19;100.00;76187.53;5034246;28;19925;-89
2022/04/08 03:15:19;;;;;;;;;;;;;;;-144.19;100.00;76217.03;5035599;28;19929;-93
2022/04/08 03:17:45;;;;;;;;;;;;;;;-144.19;100.00;76213.13;5034756;28;19924;-92
2022/04/08 03:20:12;;;;;;;;;;;;;;;-144.19;100.00;76213.13;5034151;28;19925;-90
2022/04/08 03:22:38;;;;;;;;;;;;;;;-144.19;100.00;76226.88;5035007;28;20590;-93
2022/04/08 03:25:05;;;;;;;;;;;;;;;-144.19;100.00;76215.09;5035762;28;19925;-92
2022/04/08 03:27:32;;;;;;;;;;;;;;;-144.19;100.00;76219.00;5035238;28;19925;-92
2022/04/08 03:29:58;;;;;;;;;;;;;;;-144.19;100.00;76220.97;5034361;28;19925;-92
2022/04/08 03:32:24;;;;;;;;;;;;;;;-144.19;100.00;76252.47;5034236;28;20303;-91
2022/04/08 03:34:57;;;;;;;;;;;;;;;-144.19;100.00;76248.53;5034648;28;19929;-91
2022/04/08 03:37:27;;;;;;;;;;;;;;;-144.19;100.00;76252.47;5034778;28;20027;-93
2022/04/08 03:39:53;;;;;;;;;;;;;;;-144.19;100.00;76252.47;5035911;28;19929;-91
2022/04/08 03:42:20;;;;;;;;;;;;;;;-144.19;100.00;76276.09;5052119;28;20030;-88
2022/04/08 03:44:46;;;;;;;;;;;;;;;-144.19;100.00;76272.16;5034680;28;20302;-91
2022/04/08 03:47:13;;;;;;;;;;;;;;;-144.19;100.00;76272.16;5034693;28;19924;-87
2022/04/08 03:49:39;;;;;;;;;;;;;;;-144.19;100.00;76295.78;5050195;28;19929;-89
2022/04/08 03:52:05;;;;;;;;;;;;;;;-144.19;100.00;76295.78;5033853;28;19924;-91
2022/04/08 03:54:32;;;;;;;;;;;;;;;-144.19;100.00;76299.72;5034718;28;19925;-87
2022/04/08 03:56:58;;;;;;;;;;;;;;;-144.19;100.00;76299.72;5034991;28;19935;-87
2022/04/08 03:59:24;;;;;;;;;;;;;;;-144.19;100.00;76303.66;5033608;28;19952;-91
2022/04/08 04:01:51;;;;;;;;;;;;;;;-144.19;100.00;76307.59;5027790;28;19975;-93
2022/04/08 04:04:28;;;;;;;;;;;;;;;-144.19;100.00;76315.47;5031596;28;19925;-86
2022/04/08 04:07:15;;;;;;;;;;;;;;;-144.19;100.00;76343.03;5032007;28;19944;-92
2022/04/08 04:09:44;;;;;;;;;;;;;;;-144.19;100.00;76315.47;5030946;28;19925;-91
2022/04/08 04:12:30;;;;;;;;;;;;;;;-144.19;100.00;76325.31;5047465;28;19933;-95
2022/04/08 04:15:10;;;;;;;;;;;;;;;-144.19;100.00;76337.13;5048554;28;19931;-91
2022/04/08 04:17:38;;;;;;;;;;;;;;;-144.19;100.00;76315.47;5031567;28;19945;-93
2022/04/08 04:20:15;;;;;;;;;;;;;;;-144.19;100.00;76323.34;5032397;28;20446;-92
2022/04/08 04:22:52;;;;;;;;;;;;;;;-144.19;100.00;76344.97;5047128;28;19984;-91
2022/04/08 04:25:25;;;;;;;;;;;;;;;-144.19;100.00;76368.59;5029407;28;20020;-90
2022/04/08 04:28:00;;;;;;;;;;;;;;;-144.19;100.00;76402.06;5030113;28;19932;-86
2022/04/08 04:30:27;;;;;;;;;;;;;;;-144.19;100.00;76402.06;5028365;28;19926;-92
2022/04/08 04:33:00;;;;;;;;;;;;;;;-144.19;100.00;76431.59;5027594;28;19965;-87
2022/04/08 04:35:30;;;;;;;;;;;;;;;-144.19;100.00;76404.03;5041691;28;19929;-88
2022/04/08 04:37:57;;;;;;;;;;;;;;;-144.19;100.00;76425.69;5043850;28;19932;-89
2022/04/08 04:40:25;;;;;;;;;;;;;;;-144.19;100.00;76425.69;5041682;28;20006;-86
2022/04/08 04:42:53;;;;;;;;;;;;;;;-144.19;100.00;76406.00;5046345;28;19924;-88
2022/04/08 04:45:30;;;;;;;;;;;;;;;-144.19;100.00;76398.13;5047987;28;19924;-90
2022/04/08 04:47:57;;;;;;;;;;;;;;;-144.19;100.00;76388.28;5048127;28;19929;-88
2022/04/08 04:50:26;;;;;;;;;;;;;;;-144.19;100.00;76364.66;5049077;28;19992;-88
2022/04/08 04:53:03;;;;;;;;;;;;;;;-144.19;100.00;76346.94;5039347;28;19979;-90
2022/04/08 04:55:54;;;;;;;;;;;;;;;-144.19;100.00;76343.03;5044540;28;20015;-87
2022/04/08 04:58:26;;;;;;;;;;;;;;;-144.19;100.00;76315.47;5052725;28;19935;-86
2022/04/08 05:01:03;;;;;;;;;;;;;;;-144.19;100.00;76319.41;5055377;28;19978;-90
2022/04/08 05:03:31;;;;;;;;;;;;;;;-144.19;100.00;76315.47;5050104;28;20003;-87
2022/04/08 05:06:01;;;;;;;;;;;;;;;-144.19;100.00;76299.72;5055532;28;19924;-90
2022/04/08 05:08:34;;;;;;;;;;;;;;;-144.19;100.00;76301.69;5055117;28;19925;-91
2022/04/08 05:11:01;;;;;;;;;;;;;;;-144.19;100.00;76319.41;5053619;28;19951;-90
2022/04/08 05:13:46;;;;;;;;;;;;;;;-144.19;100.00;76303.66;5057744;28;19925;-88
2022/04/08 05:16:16;;;;;;;;;;;;;;;-144.19;100.00;76321.38;5055604;28;19944;-89
2022/04/08 05:18:45;;;;;;;;;;;;;;;-144.19;100.00;76331.22;5053182;28;19928;-88
2022/04/08 05:21:15;;;;;;;;;;;;;;;-144.19;100.00;76327.28;5052174;28;19947;-87
2022/04/08 05:23:43;;;;;;;;;;;;;;;-144.19;100.00;76315.47;5056927;28;19920;-89
2022/04/08 05:26:21;;;;;;;;;;;;;;;-144.19;100.00;76317.44;5057280;28;19952;-90
2022/04/08 05:28:52;;;;;;;;;;;;;;;-144.19;100.00;76337.13;5052532;28;19925;-90
2022/04/08 05:31:29;;;;;;;;;;;;;;;-144.19;100.00;76331.22;5054600;28;19950;-90
2022/04/08 05:34:02;;;;;;;;;;;;;;;-144.19;100.00;76319.41;5055627;28;19952;-92
2022/04/08 05:36:38;;;;;;;;;;;;;;;-144.19;100.00;76346.94;5054520;28;19925;-89
2022/04/08 05:39:11;;;;;;;;;;;;;;;-144.19;100.00;76354.81;5054149;28;19929;-89
2022/04/08 05:41:48;;;;;;;;;;;;;;;-144.19;100.00;76333.19;5056845;28;20087;-92
2022/04/08 05:44:17;;;;;;;;;;;;;;;-144.19;100.00;76327.28;5056573;28;19925;-91
2022/04/08 05:47:15;;;;;;;;;;;;;;;-144.19;100.00;76323.34;5055879;28;19936;-92
2022/04/08 05:49:48;;;;;;;;;;;;;;;-144.19;100.00;76333.19;5054548;28;19925;-88
2022/04/08 05:52:15;;;;;;;;;;;;;;;-144.19;100.00;76317.44;5053291;28;19929;-88
2022/04/08 05:54:42;;;;;;;;;;;;;;;-144.19;100.00;76331.22;5049617;28;19937;-91
2022/04/08 05:57:22;;;;;;;;;;;;;;;-144.19;100.00;76307.59;5033221;28;19955;-92
2022/04/08 06:00:13;;;;;;;;;;;;;;;-144.19;100.00;76339.09;4974816;28;19930;-90
2022/04/08 06:02:45;;;;;;;;;;;;;;;-144.19;100.00;76339.09;4969752;28;19926;-92
2022/04/08 06:05:29;;;;;;;;;;;;;;;-144.19;100.00;76323.34;4996568;28;19925;-88
2022/04/08 06:13:24;;;;;;;;;;;;;;;-144.19;100.00;76311.53;5029586;28;19948;-94
2022/04/08 06:15:55;;;;;;;;;;;;;;;-144.19;100.00;76301.69;5031038;28;19932;-87
2022/04/08 06:18:22;;;;;;;;;;;;;;;-144.19;100.00;76295.78;5029590;28;20027;-91
2022/04/08 06:20:49;;;;;;;;;;;;;;;-144.19;100.00;76313.50;5027442;28;19965;-87
2022/04/08 06:23:17;;;;;;;;;;;;;;;-144.19;100.00;76313.50;5011312;28;19985;-92
2022/04/08 06:25:48;;;;;;;;;;;;;;;-144.19;100.00;76299.72;5026580;28;19925;-91
2022/04/08 06:28:18;;;;;;;;;;;;;;;-144.19;100.00;76287.91;5050679;23;20293;-85
2022/04/08 06:30:44;;;;;;;;;;;;;;;-144.19;100.00;76311.53;5073230;28;20361;-86
2022/04/08 06:33:11;;;;;;;;;;;;;;;-144.19;100.00;76307.59;5054916;28;20297;-86
2022/04/08 06:35:37;;;;;;;;;;;;;;;-144.19;100.00;76303.66;5073744;28;19924;-89
2022/04/08 06:38:05;;;;;;;;;;;;;;;-144.19;100.00;76317.44;5068253;28;19931;-86
2022/04/08 06:40:35;;;;;;;;;;;;;;;-144.19;100.00;76299.72;5035353;28;19925;-90
2022/04/08 06:43:02;;;;;;;;;;;;;;;-144.19;100.00;76283.97;5053081;28;19924;-91
2022/04/08 06:45:28;;;;;;;;;;;;;;;-144.19;100.00;76268.22;5035555;28;20020;-86
2022/04/08 06:47:55;;;;;;;;;;;;;;;-144.19;100.00;76280.03;5035438;28;19925;-88
2022/04/08 06:50:22;;;;;;;;;;;;;;;-144.19;100.00;76244.59;5035148;28;19967;-88
2022/04/08 06:52:49;;;;;;;;;;;;;;;-144.19;100.00;76209.19;5034278;28;20275;-90
2022/04/08 06:55:15;;;;;;;;;;;;;;;-144.19;100.00;76220.97;5035392;28;20020;-88
2022/04/08 06:57:42;;;;;;;;;;;;;;;-144.19;100.00;76209.19;5034877;28;19931;-90
2022/04/08 07:00:09;;;;;;;;;;;;;;;-144.19;100.00;76205.25;5035023;28;19924;-89
2022/04/08 07:02:36;;;;;;;;;;;;;;;-144.19;100.00;76222.94;5034473;28;20016;-87
2022/04/08 07:05:03;;;;;;;;;;;;;;;-144.19;100.00;76213.13;5035260;28;19994;-89
2022/04/08 07:07:33;;;;;;;;;;;;;;;-144.19;100.00;76228.84;5034439;28;19931;-83
2022/04/08 07:10:00;;;;;;;;;;;;;;;-144.19;100.00;76199.34;5034035;28;19924;-86
2022/04/08 07:12:26;;;;;;;;;;;;;;;-144.19;100.00;76185.56;5051871;28;20012;-86
2022/04/08 07:14:53;;;;;;;;;;;;;;;-144.19;100.00;76167.84;5035045;28;19924;-88
2022/04/08 07:17:27;;;;;;;;;;;;;;;-144.19;100.00;76158.00;5068248;28;19971;-85
2022/04/08 07:20:13;;;;;;;;;;;;;;;-144.19;100.00;76169.81;5037667;28;19929;-87
2022/04/08 07:22:41;;;;;;;;;;;;;;;-144.19;100.00;76171.78;5052463;28;20357;-85
2022/04/08 07:25:08;;;;;;;;;;;;;;;-144.19;100.00;76169.81;5035990;28;19925;-90
2022/04/08 07:27:44;;;;;;;;;;;;;;;-144.19;100.00;76114.69;5053449;28;19931;-89
2022/04/08 07:30:12;;;;;;;;;;;;;;;-144.19;100.00;76116.66;5019660;28;19955;-87
2022/04/08 07:32:38;;;;;;;;;;;;;;;-144.19;100.00;76130.44;5031951;28;19931;-84
2022/04/08 07:35:10;;;;;;;;;;;;;;;-144.19;100.00;76134.38;5023150;28;20016;-88
2022/04/08 07:37:36;;;;;;;;;;;;;;;-144.19;100.00;76138.31;5035191;28;19932;-89
2022/04/08 07:40:07;;;;;;;;;;;;;;;-144.19;100.00;76140.28;5019479;28;20020;-86
2022/04/08 07:42:33;;;;;;;;;;;;;;;-144.19;100.00;76128.47;5017115;28;19931;-89
2022/04/08 07:45:00;;;;;;;;;;;;;;;-144.19;100.00;76124.53;5019021;28;19925;-87
2022/04/08 07:47:27;;;;;;;;;;;;;;;-144.19;100.00;76140.28;5020326;28;20356;-90
2022/04/08 07:49:57;;;;;;;;;;;;;;;-144.19;100.00;76159.97;5019050;28;19932;-88
2022/04/08 07:52:25;;;;;;;;;;;;;;;-144.19;100.00;76201.31;5036263;28;20007;-87
2022/04/08 07:54:52;;;;;;;;;;;;;;;-144.19;100.00;76301.69;5039616;28;19952;-84
2022/04/08 07:57:18;;;;;;;;;;;;;;;-144.19;100.00;76457.19;5035488;28;20019;-85
2022/04/08 07:59:45;;;;;;;;;;;;;;;-144.19;100.00;76484.75;5034327;28;19928;-88
2022/04/08 08:02:11;;;;;;;;;;;;;;;-144.19;100.00;76539.84;5033550;28;19929;-85
2022/04/08 08:04:38;;;;;;;;;;;;;;;-144.19;100.00;76539.84;5050124;28;19925;-87
2022/04/08 08:07:06;;;;;;;;;;;;;;;-144.19;100.00;76575.28;5035684;28;20402;-90
2022/04/08 08:09:33;;;;;;;;;;;;;;;-144.19;100.00;76551.66;5031190;28;19932;-89
2022/04/08 08:12:19;;;;;;;;;;;;;;;-144.19;100.00;76551.66;5036118;28;19924;-86
2022/04/08 08:14:46;;;;;;;;;;;;;;;-144.19;100.00;76528.03;5034981;28;20486;-88
2022/04/08 08:17:12;;;;;;;;;;;;;;;-144.19;100.00;76520.16;5034861;28;19924;-89
2022/04/08 08:19:38;;;;;;;;;;;;;;;-144.19;100.00;76520.16;5034743;28;19924;-87
2022/04/08 08:22:05;;;;;;;;;;;;;;;-144.19;100.00;76469.00;5050386;28;20374;-86
2022/04/08 08:24:31;;;;;;;;;;;;;;;-144.19;100.00;76486.72;5034726;28;20011;-89
2022/04/08 08:26:57;;;;;;;;;;;;;;;-144.19;100.00;76504.41;5034675;28;19984;-89
2022/04/08 08:29:24;;;;;;;;;;;;;;;-144.19;100.00;76494.59;5036227;28;20015;-87
2022/04/08 08:31:50;;;;;;;;;;;;;;;-144.19;100.00;76484.75;5035685;28;19924;-89
2022/04/08 08:34:20;;;;;;;;;;;;;;;-144.19;100.00;76500.47;5028736;28;19929;-87
2022/04/08 08:36:46;;;;;;;;;;;;;;;-144.19;100.00;76469.00;5033917;28;19925;-88
2022/04/08 08:39:13;;;;;;;;;;;;;;;-144.19;100.00;76429.63;5016986;28;19926;-88
2022/04/08 08:41:40;;;;;;;;;;;;;;;-144.19;100.00;76453.25;5040025;28;20409;-89
2022/04/08 08:44:07;;;;;;;;;;;;;;;-144.19;100.00;76409.94;5023565;28;19968;-88
2022/04/08 08:46:34;;;;;;;;;;;;;;;-144.19;100.00;76394.19;5053330;28;19931;-85
2022/04/08 08:49:02;;;;;;;;;;;;;;;-144.19;100.00;76343.03;5052574;28;19925;-88
2022/04/08 08:51:29;;;;;;;;;;;;;;;-144.19;100.00;76319.41;5053740;28;19929;-85
2022/04/08 08:53:55;;;;;;;;;;;;;;;-144.19;100.00;76319.41;5033206;28;19928;-88
2022/04/08 08:56:21;;;;;;;;;;;;;;;-144.19;100.00;76244.59;5034119;28;19951;-85
2022/04/08 08:58:48;;;;;;;;;;;;;;;-144.19;100.00;76252.47;5032737;28;19929;-84
2022/04/08 09:01:14;;;;;;;;;;;;;;;-144.19;100.00;76256.41;5031647;28;19925;-86
2022/04/08 09:03:42;;;;;;;;;;;;;;;-144.19;100.00;76220.97;5049719;28;19936;-85
2022/04/08 09:06:09;;;;;;;;;;;;;;;-144.19;100.00;76181.63;5029870;28;20347;-83
2022/04/08 09:08:36;;;;;;;;;;;;;;;-144.19;100.00;76181.63;5033247;28;20029;-90
2022/04/08 09:11:03;;;;;;;;;;;;;;;-144.19;100.00;76142.25;5050509;28;20015;-86
2022/04/08 09:13:29;;;;;;;;;;;;;;;-144.19;100.00;76154.06;5032233;28;19928;-87
2022/04/08 09:16:01;;;;;;;;;;;;;;;-144.19;100.00;76150.13;5030383;28;19925;-87
2022/04/08 09:18:32;;;;;;;;;;;;;;;-144.19;100.00;76142.25;5032672;28;19929;-88
2022/04/08 09:21:03;;;;;;;;;;;;;;;-144.19;100.00;76134.38;5050166;28;20385;-87
2022/04/08 09:23:33;;;;;;;;;;;;;;;-144.19;100.00;76159.97;5031071;28;19924;-87
2022/04/08 09:26:00;;;;;;;;;;;;;;;-144.19;100.00;76156.03;5049617;28;19935;-88
2022/04/08 09:28:32;;;;;;;;;;;;;;;-144.19;100.00;76158.00;5031282;28;19933;-90
2022/04/08 09:30:59;;;;;;;;;;;;;;;-144.19;100.00;76126.50;5033755;28;19931;-88
2022/04/08 09:33:26;;;;;;;;;;;;;;;-144.19;100.00;76087.16;5035953;28;19929;-86
2022/04/08 09:35:54;;;;;;;;;;;;;;;-144.19;100.00;76095.03;5033948;28;19941;-89
2022/04/08 09:38:27;;;;;;;;;;;;;;;-144.19;100.00;76049.75;5037799;28;19946;-91
2022/04/08 09:41:02;;;;;;;;;;;;;;;-144.19;100.00;76012.34;5036606;28;19931;-89
2022/04/08 09:43:32;;;;;;;;;;;;;;;-144.19;100.00;75986.78;5037886;28;20038;-91
2022/04/08 09:46:12;;;;;;;;;;;;;;;-144.19;100.00;75978.91;5039426;28;19952;-91
2022/04/08 09:48:39;;;;;;;;;;;;;;;-144.19;100.00;75933.63;5036079;28;19925;-90
2022/04/08 09:51:09;;;;;;;;;;;;;;;-144.19;100.00;75890.34;5037252;28;19925;-89
2022/04/08 09:53:44;;;;;;;;;;;;;;;-144.19;100.00;75831.28;5037518;28;20341;-89
2022/04/08 09:56:18;;;;;;;;;;;;;;;-144.19;100.00;75823.41;5035790;28;19932;-92
2022/04/08 09:58:48;;;;;;;;;;;;;;;-144.19;100.00;75791.94;5036020;28;19979;-91
2022/04/08 10:01:15;;;;;;;;;;;;;;;-144.19;100.00;75752.56;5036902;28;19932;-90
2022/04/08 10:03:42;;;;;;;;;;;;;;;-144.19;100.00;75756.50;5036178;28;20019;-90
2022/04/08 10:06:08;;;;;;;;;;;;;;;-144.19;100.00;75728.94;5037703;28;20307;-86
2022/04/08 10:08:35;;;;;;;;;;;;;;;-144.19;100.00;75719.13;5035627;28;19925;-88
2022/04/08 10:11:10;;;;;;;;;;;;;;;-144.19;100.00;75717.16;5031062;28;19925;-90
2022/04/08 10:13:49;;;;;;;;;;;;;;;-144.19;100.00;75713.22;5050430;28;19925;-85
2022/04/08 10:16:20;;;;;;;;;;;;;;;-144.19;100.00;75701.41;5035275;28;19933;-92
2022/04/08 10:18:48;;;;;;;;;;;;;;;-144.19;100.00;75662.03;5035812;28;19929;-90
2022/04/08 10:21:15;;;;;;;;;;;;;;;-144.19;100.00;75685.66;5035766;28;19931;-90
2022/04/08 10:23:52;;;;;;;;;;;;;;;-144.19;100.00;75695.50;5035971;28;19928;-84
2022/04/08 10:26:20;;;;;;;;;;;;;;;-144.19;100.00;75654.16;5036529;28;19947;-89
2022/04/08 10:28:47;;;;;;;;;;;;;;;-144.19;100.00;75642.38;5036239;28;19964;-85
2022/04/08 10:31:23;;;;;;;;;;;;;;;-144.19;100.00;75656.13;5053503;28;19925;-90
2022/04/08 10:33:54;;;;;;;;;;;;;;;-144.19;100.00;75691.56;5069153;28;20359;-87
2022/04/08 10:36:45;;;;;;;;;;;;;;;-144.19;100.00;75707.31;5036941;28;20019;-89
2022/04/08 10:39:16;;;;;;;;;;;;;;;-144.19;100.00;75721.09;5036819;28;19925;-89
2022/04/08 10:41:49;;;;;;;;;;;;;;;-144.19;100.00;75746.66;5039513;28;19932;-89
2022/04/08 10:44:17;;;;;;;;;;;;;;;-144.19;100.00;75780.13;5040486;28;19925;-89
2022/04/08 10:46:51;;;;;;;;;;;;;;;-144.19;100.00;75778.16;5039850;28;20337;-93
2022/04/08 10:49:18;;;;;;;;;;;;;;;-144.19;100.00;75766.34;5038331;28;20019;-87
2022/04/08 10:51:46;;;;;;;;;;;;;;;-144.19;100.00;75758.47;5038893;28;19956;-90
2022/04/08 10:54:12;;;;;;;;;;;;;;;-144.19;100.00;75689.59;5054067;28;19925;-88
2022/04/08 10:56:41;;;;;;;;;;;;;;;-144.19;100.00;75646.31;5039035;28;20024;-90
2022/04/08 10:59:09;;;;;;;;;;;;;;;-144.19;100.00;75583.31;5038813;28;19960;-89
2022/04/08 11:01:48;;;;;;;;;;;;;;;-144.19;100.00;75545.94;5037509;28;20015;-88
2022/04/08 11:07:32;;;;;;;;;;;;;;;-144.19;94.96;75547.91;5045776;28;19929;-88
2022/04/08 11:10:17;;;;;;;;;;;;;;;-144.19;93.29;75518.38;5037073;28;19932;-85
2022/04/08 11:12:44;;;;;;;;;;;;;;;-144.19;88.66;75559.72;5037620;28;19924;-86
2022/04/08 11:15:31;;;;;;;;;;;;;;;-144.19;92.84;75547.91;5039081;28;19925;-91
2022/04/08 11:18:01;;;;;;;;;;;;;;;-144.19;92.37;75589.22;5038660;28;20303;-92
2022/04/08 11:20:30;;;;;;;;;;;;;;;-144.19;100.00;75563.66;5037040;28;19925;-87
2022/04/08 11:22:58;;;;;;;;;;;;;;;-144.19;95.66;75599.06;5051360;28;20383;-90
2022/04/08 11:25:28;;;;;;;;;;;;;;;-144.19;93.50;75622.69;5052517;28;19924;-91
2022/04/08 11:28:09;;;;;;;;;;;;;;;-144.19;94.82;75638.44;5053227;28;19925;-90
2022/04/08 11:30:38;;;;;;;;;;;;;;;-144.19;92.10;75642.38;5026831;28;19929;-86
2022/04/08 11:33:15;;;;;;;;;;;;;;;-144.19;94.36;75662.03;5034027;28;19979;-89
2022/04/08 11:35:43;;;;;;;;;;;;;;;-144.19;92.42;75685.66;5036715;28;19955;-88
2022/04/08 11:38:13;;;;;;;;;;;;;;;-144.19;96.94;75727.00;5035843;28;19964;-84
2022/04/08 11:40:39;;;;;;;;;;;;;;;-144.19;92.30;75707.31;5035042;28;19935;-86
2022/04/08 11:43:06;;;;;;;;;;;;;;;-144.19;99.85;75697.47;5035384;28;19925;-89
2022/04/08 11:45:35;;;;;;;;;;;;;;;-144.19;100.00;75667.94;5036164;28;19931;-86
2022/04/08 11:48:16;;;;;;;;;;;;;;;-144.19;100.00;75601.03;5035885;28;20040;-86
2022/04/08 11:50:49;;;;;;;;;;;;;;;-144.19;93.67;75595.13;5036618;28;19956;-90
2022/04/08 11:53:22;;;;;;;;;;;;;;;-144.19;89.76;75630.56;5035458;28;19925;-82
2022/04/08 11:55:53;;;;;;;;;;;;;;;-144.19;92.66;75593.16;5038495;28;19972;-91
2022/04/08 11:58:19;;;;;;;;;;;;;;;-144.19;89.31;75577.41;5053730;28;19933;-91
2022/04/08 12:00:50;;;;;;;;;;;;;;;-144.19;86.98;75543.97;5036128;28;19928;-85
2022/04/08 12:03:20;;;;;;;;;;;;;;;-144.19;85.13;75536.09;5052831;28;20345;-84
2022/04/08 12:06:00;;;;;;;;;;;;;;;-144.19;84.57;75540.03;5031642;28;19940;-87
2022/04/08 12:08:37;;;;;;;;;;;;;;;-144.19;81.10;75579.38;5041187;28;21633;-86
2022/04/08 12:11:10;;;;;;;;;;;;;;;-144.19;84.59;75575.44;5032605;28;19931;-86
2022/04/08 12:13:38;;;;;;;;;;;;;;;-144.19;84.35;75559.72;5052083;28;19936;-89
2022/04/08 12:16:08;;;;;;;;;;;;;;;-144.19;92.50;75508.53;5035218;28;19925;-87
2022/04/08 12:18:35;;;;;;;;;;;;;;;-144.19;81.55;75500.66;5031296;28;19929;-86
2022/04/08 12:21:06;;;;;;;;;;;;;;;-144.19;83.58;75492.81;5036192;28;19994;-91
2022/04/08 12:23:32;;;;;;;;;;;;;;;-144.19;78.31;75530.19;5038993;28;20305;-90
2022/04/08 12:26:05;;;;;;;;;;;;;;;-144.19;80.74;75536.09;5041446;28;19939;-93
2022/04/08 12:28:45;;;;;;;;;;;;;;;-144.19;80.72;75516.41;5041015;28;19984;-90
2022/04/08 12:31:13;;;;;;;;;;;;;;;-144.19;82.49;75488.88;5039777;28;19971;-87
2022/04/08 12:33:40;;;;;;;;;;;;;;;-144.19;83.89;75467.22;5048290;28;19988;-88
2022/04/08 12:36:07;;;;;;;;;;;;;;;-144.19;79.25;75484.94;5048710;28;19932;-88
2022/04/08 12:38:44;;;;;;;;;;;;;;;-144.19;81.92;75528.22;5035550;28;19925;-89